Terminal Aerodrome Forecast
Issued by NWS

Home | Current Version | Previous Version | Text Only | Print | Product List | Glossary On
Versions: 1 2 3 4 5 6 7 8 9 10 11 12 13 14 15 16 17
000
FTUS42 KMLB 300607 AAA
TAFFPR
TAF AMD
KFPR 300607Z 3006/3106 VRB03KT P6SM VCSH FEW025 SCT110 SCT250
      TEMPO 3006/3008 4SM SHRA BKN025 BKN035
     FM301600 07008KT P6SM VCTS SCT040CB BKN250
     FM302100 10008KT P6SM VCSH FEW025 SCT100 SCT250
     FM310000 13004KT P6SM FEW025=

USA.gov is the U.S. government's official web portal to all federal, state and local government web resources and services.